sensor_id;sensor_type;location;lat;lon;timestamp;temperature;humidity
8220;DHT22;4151;51.110;7.020;2022-11-12T00:00:30;5.60;99.90
8220;DHT22;4151;51.110;7.020;2022-11-12T00:02:56;5.50;99.90
8220;DHT22;4151;51.110;7.020;2022-11-12T00:05:22;5.50;99.90
8220;DHT22;4151;51.110;7.020;2022-11-12T00:07:48;5.50;99.90
8220;DHT22;4151;51.110;7.020;2022-11-12T00:10:14;5.50;99.90
8220;DHT22;4151;51.110;7.020;2022-11-12T00:12:40;5.40;99.90
8220;DHT22;4151;51.110;7.020;2022-11-12T00:15:05;5.40;99.90
8220;DHT22;4151;51.110;7.020;2022-11-12T00:17:31;5.40;99.90
8220;DHT22;4151;51.110;7.020;2022-11-12T00:19:57;5.40;99.90
8220;DHT22;4151;51.110;7.020;2022-11-12T00:22:22;5.40;99.90
8220;DHT22;4151;51.110;7.020;2022-11-12T00:24:48;5.40;99.90
8220;DHT22;4151;51.110;7.020;2022-11-12T00:27:13;5.40;99.90
8220;DHT22;4151;51.110;7.020;2022-11-12T00:29:39;5.30;99.90
8220;DHT22;4151;51.110;7.020;2022-11-12T00:32:05;5.30;99.90
8220;DHT22;4151;51.110;7.020;2022-11-12T00:34:32;5.20;99.90
8220;DHT22;4151;51.110;7.020;2022-11-12T00:36:58;5.20;99.90
8220;DHT22;4151;51.110;7.020;2022-11-12T00:39:24;5.20;99.90
8220;DHT22;4151;51.110;7.020;2022-11-12T00:41:49;5.20;99.90
8220;DHT22;4151;51.110;7.020;2022-11-12T00:44:15;5.20;99.90
8220;DHT22;4151;51.110;7.020;2022-11-12T00:46:41;5.10;99.90
8220;DHT22;4151;51.110;7.020;2022-11-12T00:49:06;5.10;99.90
8220;DHT22;4151;51.110;7.020;2022-11-12T00:51:32;5.10;99.90
8220;DHT22;4151;51.110;7.020;2022-11-12T00:53:58;5.00;99.90
8220;DHT22;4151;51.110;7.020;2022-11-12T00:56:23;5.00;99.90
8220;DHT22;4151;51.110;7.020;2022-11-12T00:58:49;5.00;99.90
8220;DHT22;4151;51.110;7.020;2022-11-12T01:01:15;5.00;99.90
8220;DHT22;4151;51.110;7.020;2022-11-12T01:03:41;5.00;99.90
8220;DHT22;4151;51.110;7.020;2022-11-12T01:06:13;4.90;99.90
8220;DHT22;4151;51.110;7.020;2022-11-12T01:08:39;4.90;99.90
8220;DHT22;4151;51.110;7.020;2022-11-12T01:11:13;4.90;99.90
8220;DHT22;4151;51.110;7.020;2022-11-12T01:13:41;4.90;99.90
8220;DHT22;4151;51.110;7.020;2022-11-12T01:16:10;4.90;99.90
8220;DHT22;4151;51.110;7.020;2022-11-12T01:18:36;4.80;99.90
8220;DHT22;4151;51.110;7.020;2022-11-12T01:21:05;4.80;99.90
8220;DHT22;4151;51.110;7.020;2022-11-12T01:23:36;4.80;99.90
8220;DHT22;4151;51.110;7.020;2022-11-12T01:26:09;4.80;99.90
8220;DHT22;4151;51.110;7.020;2022-11-12T01:28:35;4.80;99.90
8220;DHT22;4151;51.110;7.020;2022-11-12T01:31:22;4.80;99.90
8220;DHT22;4151;51.110;7.020;2022-11-12T01:33:52;4.80;99.90
8220;DHT22;4151;51.110;7.020;2022-11-12T01:36:18;4.80;99.90
8220;DHT22;4151;51.110;7.020;2022-11-12T01:38:44;4.80;99.90
8220;DHT22;4151;51.110;7.020;2022-11-12T01:41:16;4.80;99.90
8220;DHT22;4151;51.110;7.020;2022-11-12T01:43:42;4.70;99.90
8220;DHT22;4151;51.110;7.020;2022-11-12T01:46:21;4.70;99.90
8220;DHT22;4151;51.110;7.020;2022-11-12T01:48:55;4.70;99.90
8220;DHT22;4151;51.110;7.020;2022-11-12T01:51:25;4.70;99.90
8220;DHT22;4151;51.110;7.020;2022-11-12T01:53:54;4.70;99.90
8220;DHT22;4151;51.110;7.020;2022-11-12T01:56:23;4.70;99.90
8220;DHT22;4151;51.110;7.020;2022-11-12T01:58:55;4.70;99.90
8220;DHT22;4151;51.110;7.020;2022-11-12T02:01:22;4.70;99.90
8220;DHT22;4151;51.110;7.020;2022-11-12T02:03:47;4.70;99.90
8220;DHT22;4151;51.110;7.020;2022-11-12T02:06:13;4.60;99.90
8220;DHT22;4151;51.110;7.020;2022-11-12T02:08:40;4.70;99.90
8220;DHT22;4151;51.110;7.020;2022-11-12T02:11:24;4.70;99.90
8220;DHT22;4151;51.110;7.020;2022-11-12T02:13:51;4.70;99.90
8220;DHT22;4151;51.110;7.020;2022-11-12T02:16:41;4.80;99.90
8220;DHT22;4151;51.110;7.020;2022-11-12T02:19:10;4.80;99.90
8220;DHT22;4151;51.110;7.020;2022-11-12T02:21:36;4.90;99.90
8220;DHT22;4151;51.110;7.020;2022-11-12T02:26:53;4.80;99.90
8220;DHT22;4151;51.110;7.020;2022-11-12T02:29:19;4.80;99.90
8220;DHT22;4151;51.110;7.020;2022-11-12T02:31:45;4.90;99.90
8220;DHT22;4151;51.110;7.020;2022-11-12T02:34:10;5.00;99.90
8220;DHT22;4151;51.110;7.020;2022-11-12T02:36:36;5.00;99.90
8220;DHT22;4151;51.110;7.020;2022-11-12T02:39:01;5.00;99.90
8220;DHT22;4151;51.110;7.020;2022-11-12T02:41:27;5.00;99.90
8220;DHT22;4151;51.110;7.020;2022-11-12T02:43:52;5.10;99.90
8220;DHT22;4151;51.110;7.020;2022-11-12T02:46:18;5.10;99.90
8220;DHT22;4151;51.110;7.020;2022-11-12T02:48:44;5.20;99.90
8220;DHT22;4151;51.110;7.020;2022-11-12T02:51:09;5.10;99.90
8220;DHT22;4151;51.110;7.020;2022-11-12T02:53:35;5.10;99.90
8220;DHT22;4151;51.110;7.020;2022-11-12T02:56:01;5.10;99.90
8220;DHT22;4151;51.110;7.020;2022-11-12T02:58:28;5.00;99.90
8220;DHT22;4151;51.110;7.020;2022-11-12T03:00:54;5.00;99.90
8220;DHT22;4151;51.110;7.020;2022-11-12T03:03:20;5.00;99.90
8220;DHT22;4151;51.110;7.020;2022-11-12T03:05:57;5.00;99.90
8220;DHT22;4151;51.110;7.020;2022-11-12T03:08:23;5.00;99.90
8220;DHT22;4151;51.110;7.020;2022-11-12T03:10:49;4.90;99.90
8220;DHT22;4151;51.110;7.020;2022-11-12T03:13:15;4.90;99.90
8220;DHT22;4151;51.110;7.020;2022-11-12T03:15:40;4.90;99.90
8220;DHT22;4151;51.110;7.020;2022-11-12T03:18:06;4.80;99.90
8220;DHT22;4151;51.110;7.020;2022-11-12T03:20:31;4.80;99.90
8220;DHT22;4151;51.110;7.020;2022-11-12T03:23:09;4.80;99.90
8220;DHT22;4151;51.110;7.020;2022-11-12T03:25:35;4.70;99.90
8220;DHT22;4151;51.110;7.020;2022-11-12T03:28:13;4.70;99.90
8220;DHT22;4151;51.110;7.020;2022-11-12T03:30:40;4.70;99.90
8220;DHT22;4151;51.110;7.020;2022-11-12T03:33:08;4.70;99.90
8220;DHT22;4151;51.110;7.020;2022-11-12T03:35:35;4.60;99.90
8220;DHT22;4151;51.110;7.020;2022-11-12T03:38:01;4.60;99.90
8220;DHT22;4151;51.110;7.020;2022-11-12T03:40:27;4.60;99.90
8220;DHT22;4151;51.110;7.020;2022-11-12T03:42:53;4.50;99.90
8220;DHT22;4151;51.110;7.020;2022-11-12T03:45:21;4.50;99.90
8220;DHT22;4151;51.110;7.020;2022-11-12T03:47:52;4.50;99.90
8220;DHT22;4151;51.110;7.020;2022-11-12T03:50:20;4.50;99.90
8220;DHT22;4151;51.110;7.020;2022-11-12T03:52:47;4.40;99.90
8220;DHT22;4151;51.110;7.020;2022-11-12T03:55:15;4.40;99.90
8220;DHT22;4151;51.110;7.020;2022-11-12T03:57:42;4.40;99.90
8220;DHT22;4151;51.110;7.020;2022-11-12T04:00:09;4.40;99.90
8220;DHT22;4151;51.110;7.020;2022-11-12T04:02:36;4.40;99.90
8220;DHT22;4151;51.110;7.020;2022-11-12T04:05:02;4.40;99.90
8220;DHT22;4151;51.110;7.020;2022-11-12T04:07:57;4.30;99.90
8220;DHT22;4151;51.110;7.020;2022-11-12T04:10:41;4.30;99.90
8220;DHT22;4151;51.110;7.020;2022-11-12T04:13:07;4.30;99.90
8220;DHT22;4151;51.110;7.020;2022-11-12T04:15:50;4.20;99.90
8220;DHT22;4151;51.110;7.020;2022-11-12T04:18:36;4.20;99.90
8220;DHT22;4151;51.110;7.020;2022-11-12T04:21:20;4.10;99.90
8220;DHT22;4151;51.110;7.020;2022-11-12T04:24:05;4.10;99.90
8220;DHT22;4151;51.110;7.020;2022-11-12T04:26:30;4.10;99.90
8220;DHT22;4151;51.110;7.020;2022-11-12T04:28:56;4.10;99.90
8220;DHT22;4151;51.110;7.020;2022-11-12T04:31:40;4.10;99.90
8220;DHT22;4151;51.110;7.020;2022-11-12T04:34:05;4.10;99.90
8220;DHT22;4151;51.110;7.020;2022-11-12T04:36:49;4.10;99.90
8220;DHT22;4151;51.110;7.020;2022-11-12T04:39:15;4.00;99.90
8220;DHT22;4151;51.110;7.020;2022-11-12T04:41:40;4.00;99.90
8220;DHT22;4151;51.110;7.020;2022-11-12T04:44:24;4.00;99.90
8220;DHT22;4151;51.110;7.020;2022-11-12T04:47:08;4.00;99.90
8220;DHT22;4151;51.110;7.020;2022-11-12T04:49:34;3.90;99.90
8220;DHT22;4151;51.110;7.020;2022-11-12T04:51:59;4.00;99.90
8220;DHT22;4151;51.110;7.020;2022-11-12T04:54:31;4.00;99.90
8220;DHT22;4151;51.110;7.020;2022-11-12T04:56:57;3.90;99.90
8220;DHT22;4151;51.110;7.020;2022-11-12T04:59:23;3.90;99.90
8220;DHT22;4151;51.110;7.020;2022-11-12T05:01:48;3.90;99.90
8220;DHT22;4151;51.110;7.020;2022-11-12T05:04:14;3.90;99.90
8220;DHT22;4151;51.110;7.020;2022-11-12T05:06:39;3.90;99.90
8220;DHT22;4151;51.110;7.020;2022-11-12T05:09:21;3.90;99.90
8220;DHT22;4151;51.110;7.020;2022-11-12T05:11:47;3.80;99.90
8220;DHT22;4151;51.110;7.020;2022-11-12T05:14:13;3.80;99.90
8220;DHT22;4151;51.110;7.020;2022-11-12T05:16:39;3.80;99.90
8220;DHT22;4151;51.110;7.020;2022-11-12T05:19:05;3.80;99.90
8220;DHT22;4151;51.110;7.020;2022-11-12T05:21:30;3.80;99.90
8220;DHT22;4151;51.110;7.020;2022-11-12T05:24:15;3.80;99.90
8220;DHT22;4151;51.110;7.020;2022-11-12T05:26:40;3.80;99.90
8220;DHT22;4151;51.110;7.020;2022-11-12T05:29:06;3.80;99.90
8220;DHT22;4151;51.110;7.020;2022-11-12T05:31:32;3.80;99.90
8220;DHT22;4151;51.110;7.020;2022-11-12T05:33:58;3.80;99.90
8220;DHT22;4151;51.110;7.020;2022-11-12T05:36:24;3.70;99.90
8220;DHT22;4151;51.110;7.020;2022-11-12T05:38:49;3.70;99.90
8220;DHT22;4151;51.110;7.020;2022-11-12T05:41:15;3.70;99.90
8220;DHT22;4151;51.110;7.020;2022-11-12T05:43:40;3.70;99.90
8220;DHT22;4151;51.110;7.020;2022-11-12T05:46:06;3.70;99.90
8220;DHT22;4151;51.110;7.020;2022-11-12T05:48:31;3.70;99.90
8220;DHT22;4151;51.110;7.020;2022-11-12T05:50:57;3.70;99.90
8220;DHT22;4151;51.110;7.020;2022-11-12T05:53:22;3.70;99.90
8220;DHT22;4151;51.110;7.020;2022-11-12T05:55:48;3.70;99.90
8220;DHT22;4151;51.110;7.020;2022-11-12T05:58:14;3.70;99.90
8220;DHT22;4151;51.110;7.020;2022-11-12T06:00:39;3.60;99.90
8220;DHT22;4151;51.110;7.020;2022-11-12T06:03:09;3.60;99.90
8220;DHT22;4151;51.110;7.020;2022-11-12T06:05:35;3.60;99.90
8220;DHT22;4151;51.110;7.020;2022-11-12T06:08:01;3.60;99.90
8220;DHT22;4151;51.110;7.020;2022-11-12T06:10:28;3.60;99.90
8220;DHT22;4151;51.110;7.020;2022-11-12T06:12:54;3.60;99.90
8220;DHT22;4151;51.110;7.020;2022-11-12T06:15:20;3.60;99.90
8220;DHT22;4151;51.110;7.020;2022-11-12T06:17:45;3.60;99.90
8220;DHT22;4151;51.110;7.020;2022-11-12T06:20:11;3.50;99.90
8220;DHT22;4151;51.110;7.020;2022-11-12T06:22:37;3.50;99.90
8220;DHT22;4151;51.110;7.020;2022-11-12T06:25:03;3.50;99.90
8220;DHT22;4151;51.110;7.020;2022-11-12T06:27:30;3.50;99.90
8220;DHT22;4151;51.110;7.020;2022-11-12T06:29:56;3.50;99.90
8220;DHT22;4151;51.110;7.020;2022-11-12T06:32:21;3.40;99.90
8220;DHT22;4151;51.110;7.020;2022-11-12T06:34:47;3.50;99.90
8220;DHT22;4151;51.110;7.020;2022-11-12T06:37:13;3.40;99.90
8220;DHT22;4151;51.110;7.020;2022-11-12T06:39:38;3.40;99.90
8220;DHT22;4151;51.110;7.020;2022-11-12T06:42:04;3.50;99.90
8220;DHT22;4151;51.110;7.020;2022-11-12T06:44:29;3.40;99.90
8220;DHT22;4151;51.110;7.020;2022-11-12T06:46:55;3.40;99.90
8220;DHT22;4151;51.110;7.020;2022-11-12T06:49:21;3.40;99.90
8220;DHT22;4151;51.110;7.020;2022-11-12T06:51:49;3.40;99.90
8220;DHT22;4151;51.110;7.020;2022-11-12T06:54:15;3.40;99.90
8220;DHT22;4151;51.110;7.020;2022-11-12T06:56:40;3.40;99.90
8220;DHT22;4151;51.110;7.020;2022-11-12T06:59:06;3.40;99.90
8220;DHT22;4151;51.110;7.020;2022-11-12T07:01:32;3.40;99.90
8220;DHT22;4151;51.110;7.020;2022-11-12T07:03:57;3.40;99.90
8220;DHT22;4151;51.110;7.020;2022-11-12T07:06:23;3.40;99.90
8220;DHT22;4151;51.110;7.020;2022-11-12T07:08:49;3.40;99.90
8220;DHT22;4151;51.110;7.020;2022-11-12T07:11:16;3.50;99.90
8220;DHT22;4151;51.110;7.020;2022-11-12T07:13:42;3.50;99.90
8220;DHT22;4151;51.110;7.020;2022-11-12T07:16:11;3.50;99.90
8220;DHT22;4151;51.110;7.020;2022-11-12T07:18:38;3.50;99.90
8220;DHT22;4151;51.110;7.020;2022-11-12T07:21:07;3.50;99.90
8220;DHT22;4151;51.110;7.020;2022-11-12T07:23:34;3.60;99.90
8220;DHT22;4151;51.110;7.020;2022-11-12T07:26:05;3.60;99.90
8220;DHT22;4151;51.110;7.020;2022-11-12T07:28:32;3.60;99.90
8220;DHT22;4151;51.110;7.020;2022-11-12T07:31:06;3.70;99.90
8220;DHT22;4151;51.110;7.020;2022-11-12T07:33:32;3.70;99.90
8220;DHT22;4151;51.110;7.020;2022-11-12T07:36:07;3.70;99.90
8220;DHT22;4151;51.110;7.020;2022-11-12T07:38:36;3.80;99.90
8220;DHT22;4151;51.110;7.020;2022-11-12T07:41:11;3.90;99.90
8220;DHT22;4151;51.110;7.020;2022-11-12T07:43:38;4.00;99.90
8220;DHT22;4151;51.110;7.020;2022-11-12T07:46:07;4.00;99.90
8220;DHT22;4151;51.110;7.020;2022-11-12T07:48:33;4.20;99.90
8220;DHT22;4151;51.110;7.020;2022-11-12T07:53:25;4.40;99.90
8220;DHT22;4151;51.110;7.020;2022-11-12T07:55:55;4.50;99.90
8220;DHT22;4151;51.110;7.020;2022-11-12T07:58:22;4.60;99.90
8220;DHT22;4151;51.110;7.020;2022-11-12T08:00:48;4.70;99.90
8220;DHT22;4151;51.110;7.020;2022-11-12T08:03:14;4.80;99.90
8220;DHT22;4151;51.110;7.020;2022-11-12T08:05:40;4.80;99.90
8220;DHT22;4151;51.110;7.020;2022-11-12T08:08:05;4.90;99.90
8220;DHT22;4151;51.110;7.020;2022-11-12T08:10:31;5.00;99.90
8220;DHT22;4151;51.110;7.020;2022-11-12T08:12:56;5.20;99.90
8220;DHT22;4151;51.110;7.020;2022-11-12T08:15:22;5.30;99.90
8220;DHT22;4151;51.110;7.020;2022-11-12T08:17:47;5.60;99.90
8220;DHT22;4151;51.110;7.020;2022-11-12T08:20:13;5.90;99.90
8220;DHT22;4151;51.110;7.020;2022-11-12T08:22:39;6.10;99.90
8220;DHT22;4151;51.110;7.020;2022-11-12T08:25:05;6.40;99.90
8220;DHT22;4151;51.110;7.020;2022-11-12T08:27:31;6.70;99.90
8220;DHT22;4151;51.110;7.020;2022-11-12T08:29:57;6.90;99.90
8220;DHT22;4151;51.110;7.020;2022-11-12T08:32:22;7.30;99.90
8220;DHT22;4151;51.110;7.020;2022-11-12T08:34:49;7.70;99.90
8220;DHT22;4151;51.110;7.020;2022-11-12T08:37:14;8.20;99.90
8220;DHT22;4151;51.110;7.020;2022-11-12T08:39:40;8.50;99.90
8220;DHT22;4151;51.110;7.020;2022-11-12T08:42:05;8.60;99.90
8220;DHT22;4151;51.110;7.020;2022-11-12T08:44:31;8.60;99.90
8220;DHT22;4151;51.110;7.020;2022-11-12T08:46:57;8.70;99.90
8220;DHT22;4151;51.110;7.020;2022-11-12T08:49:24;8.60;99.90
8220;DHT22;4151;51.110;7.020;2022-11-12T08:51:50;8.60;99.90
8220;DHT22;4151;51.110;7.020;2022-11-12T08:54:15;8.60;99.90
8220;DHT22;4151;51.110;7.020;2022-11-12T08:56:41;8.90;99.90
8220;DHT22;4151;51.110;7.020;2022-11-12T08:59:06;9.30;99.90
8220;DHT22;4151;51.110;7.020;2022-11-12T09:01:32;10.10;99.90
8220;DHT22;4151;51.110;7.020;2022-11-12T09:03:57;11.20;99.90
8220;DHT22;4151;51.110;7.020;2022-11-12T09:06:23;12.10;99.90
8220;DHT22;4151;51.110;7.020;2022-11-12T09:08:49;12.70;99.90
8220;DHT22;4151;51.110;7.020;2022-11-12T09:11:14;12.80;99.90
8220;DHT22;4151;51.110;7.020;2022-11-12T09:13:40;12.90;99.90
8220;DHT22;4151;51.110;7.020;2022-11-12T09:16:07;13.20;99.90
8220;DHT22;4151;51.110;7.020;2022-11-12T09:18:33;14.20;99.90
8220;DHT22;4151;51.110;7.020;2022-11-12T09:21:01;15.10;99.90
8220;DHT22;4151;51.110;7.020;2022-11-12T09:23:27;15.40;99.90
8220;DHT22;4151;51.110;7.020;2022-11-12T09:25:54;16.10;99.90
8220;DHT22;4151;51.110;7.020;2022-11-12T09:28:20;16.50;99.90
8220;DHT22;4151;51.110;7.020;2022-11-12T09:30:47;16.70;99.90
8220;DHT22;4151;51.110;7.020;2022-11-12T09:33:13;16.90;99.90
8220;DHT22;4151;51.110;7.020;2022-11-12T09:35:39;16.80;99.90
8220;DHT22;4151;51.110;7.020;2022-11-12T09:38:05;16.60;99.90
8220;DHT22;4151;51.110;7.020;2022-11-12T09:45:54;16.20;99.90
8220;DHT22;4151;51.110;7.020;2022-11-12T09:48:28;16.10;99.90
8220;DHT22;4151;51.110;7.020;2022-11-12T09:51:09;16.20;99.90
8220;DHT22;4151;51.110;7.020;2022-11-12T09:53:47;16.30;99.90
8220;DHT22;4151;51.110;7.020;2022-11-12T09:56:15;16.00;99.90
8220;DHT22;4151;51.110;7.020;2022-11-12T09:58:42;16.10;99.90
8220;DHT22;4151;51.110;7.020;2022-11-12T10:07:08;15.80;99.90
8220;DHT22;4151;51.110;7.020;2022-11-12T10:15:29;15.50;99.90
8220;DHT22;4151;51.110;7.020;2022-11-12T10:20:57;16.10;99.90
8220;DHT22;4151;51.110;7.020;2022-11-12T10:23:44;16.30;99.90
8220;DHT22;4151;51.110;7.020;2022-11-12T10:26:18;16.30;99.90
8220;DHT22;4151;51.110;7.020;2022-11-12T10:28:49;16.60;99.90
8220;DHT22;4151;51.110;7.020;2022-11-12T10:31:18;17.30;99.90
8220;DHT22;4151;51.110;7.020;2022-11-12T10:33:44;17.20;99.90
8220;DHT22;4151;51.110;7.020;2022-11-12T10:36:23;17.60;99.90
8220;DHT22;4151;51.110;7.020;2022-11-12T10:38:52;17.70;99.90
8220;DHT22;4151;51.110;7.020;2022-11-12T10:41:24;17.70;99.90
8220;DHT22;4151;51.110;7.020;2022-11-12T10:43:57;18.20;99.90
8220;DHT22;4151;51.110;7.020;2022-11-12T10:46:27;17.70;99.90
8220;DHT22;4151;51.110;7.020;2022-11-12T10:49:00;17.30;99.90
8220;DHT22;4151;51.110;7.020;2022-11-12T10:51:31;17.10;99.90
8220;DHT22;4151;51.110;7.020;2022-11-12T10:53:57;17.50;99.90
8220;DHT22;4151;51.110;7.020;2022-11-12T10:56:26;17.80;99.90
8220;DHT22;4151;51.110;7.020;2022-11-12T11:01:34;17.60;99.90
8220;DHT22;4151;51.110;7.020;2022-11-12T11:04:00;17.40;99.90
8220;DHT22;4151;51.110;7.020;2022-11-12T11:06:26;17.30;99.90
8220;DHT22;4151;51.110;7.020;2022-11-12T11:08:53;17.40;99.90
8220;DHT22;4151;51.110;7.020;2022-11-12T11:11:32;17.60;99.90
8220;DHT22;4151;51.110;7.020;2022-11-12T11:19:14;17.10;99.90
8220;DHT22;4151;51.110;7.020;2022-11-12T11:21:56;17.20;99.90
8220;DHT22;4151;51.110;7.020;2022-11-12T11:24:43;17.30;99.90
8220;DHT22;4151;51.110;7.020;2022-11-12T11:27:25;17.20;99.90
8220;DHT22;4151;51.110;7.020;2022-11-12T11:30:00;17.30;99.90
8220;DHT22;4151;51.110;7.020;2022-11-12T11:35:23;17.80;99.90
8220;DHT22;4151;51.110;7.020;2022-11-12T11:40:52;17.80;99.90
8220;DHT22;4151;51.110;7.020;2022-11-12T11:48:58;18.00;99.90
8220;DHT22;4151;51.110;7.020;2022-11-12T11:51:38;18.30;99.90
8220;DHT22;4151;51.110;7.020;2022-11-12T11:56:39;19.20;99.90
8220;DHT22;4151;51.110;7.020;2022-11-12T12:04:36;19.20;99.90
8220;DHT22;4151;51.110;7.020;2022-11-12T12:07:14;18.90;99.90
8220;DHT22;4151;51.110;7.020;2022-11-12T12:09:56;19.00;99.90
8220;DHT22;4151;51.110;7.020;2022-11-12T12:20:26;18.80;99.90
8220;DHT22;4151;51.110;7.020;2022-11-12T12:23:10;18.60;99.90
8220;DHT22;4151;51.110;7.020;2022-11-12T12:25:40;18.50;99.90
8220;DHT22;4151;51.110;7.020;2022-11-12T12:28:39;18.30;99.90
8220;DHT22;4151;51.110;7.020;2022-11-12T12:31:12;18.70;99.90
8220;DHT22;4151;51.110;7.020;2022-11-12T12:33:48;18.70;99.90
8220;DHT22;4151;51.110;7.020;2022-11-12T12:36:40;18.80;99.90
8220;DHT22;4151;51.110;7.020;2022-11-12T12:39:13;19.20;99.90
8220;DHT22;4151;51.110;7.020;2022-11-12T12:41:58;19.60;99.90
8220;DHT22;4151;51.110;7.020;2022-11-12T12:44:30;19.90;99.90
8220;DHT22;4151;51.110;7.020;2022-11-12T12:47:17;19.80;99.90
8220;DHT22;4151;51.110;7.020;2022-11-12T12:49:45;20.40;99.90
8220;DHT22;4151;51.110;7.020;2022-11-12T12:52:14;21.00;99.90
8220;DHT22;4151;51.110;7.020;2022-11-12T12:57:43;19.90;99.90
8220;DHT22;4151;51.110;7.020;2022-11-12T13:00:38;20.20;99.90
8220;DHT22;4151;51.110;7.020;2022-11-12T13:03:05;20.60;99.90
8220;DHT22;4151;51.110;7.020;2022-11-12T13:05:35;20.90;99.90
8220;DHT22;4151;51.110;7.020;2022-11-12T13:08:22;21.10;99.90
8220;DHT22;4151;51.110;7.020;2022-11-12T13:10:49;21.00;99.90
8220;DHT22;4151;51.110;7.020;2022-11-12T13:15:52;20.50;99.90
8220;DHT22;4151;51.110;7.020;2022-11-12T13:21:17;20.20;99.90
8220;DHT22;4151;51.110;7.020;2022-11-12T13:23:51;20.50;99.90
8220;DHT22;4151;51.110;7.020;2022-11-12T13:26:50;20.40;99.90
8220;DHT22;4151;51.110;7.020;2022-11-12T13:32:27;20.70;99.90
8220;DHT22;4151;51.110;7.020;2022-11-12T13:37:53;21.50;99.90
8220;DHT22;4151;51.110;7.020;2022-11-12T13:40:36;21.70;99.90
8220;DHT22;4151;51.110;7.020;2022-11-12T13:48:59;24.20;99.90
8220;DHT22;4151;51.110;7.020;2022-11-12T13:51:33;23.70;99.90
8220;DHT22;4151;51.110;7.020;2022-11-12T13:54:00;23.50;99.90
8220;DHT22;4151;51.110;7.020;2022-11-12T13:56:28;22.90;99.90
8220;DHT22;4151;51.110;7.020;2022-11-12T13:58:54;22.60;99.90
8220;DHT22;4151;51.110;7.020;2022-11-12T14:01:32;23.10;99.90
8220;DHT22;4151;51.110;7.020;2022-11-12T14:03:58;23.40;99.90
8220;DHT22;4151;51.110;7.020;2022-11-12T14:06:39;23.60;99.90
8220;DHT22;4151;51.110;7.020;2022-11-12T14:19:54;23.30;99.90
8220;DHT22;4151;51.110;7.020;2022-11-12T14:22:24;22.60;99.90
8220;DHT22;4151;51.110;7.020;2022-11-12T14:25:00;22.30;99.90
8220;DHT22;4151;51.110;7.020;2022-11-12T14:32:40;22.20;99.90
8220;DHT22;4151;51.110;7.020;2022-11-12T14:37:58;20.50;99.90
8220;DHT22;4151;51.110;7.020;2022-11-12T14:40:26;20.00;99.90
8220;DHT22;4151;51.110;7.020;2022-11-12T14:42:53;19.70;99.90
8220;DHT22;4151;51.110;7.020;2022-11-12T14:45:20;19.50;99.90
8220;DHT22;4151;51.110;7.020;2022-11-12T14:47:48;19.50;99.90
8220;DHT22;4151;51.110;7.020;2022-11-12T14:50:35;19.60;99.90
8220;DHT22;4151;51.110;7.020;2022-11-12T14:53:04;20.20;99.90
8220;DHT22;4151;51.110;7.020;2022-11-12T14:55:35;20.80;99.90
8220;DHT22;4151;51.110;7.020;2022-11-12T15:09:17;20.70;99.90
8220;DHT22;4151;51.110;7.020;2022-11-12T15:11:47;20.20;99.90
8220;DHT22;4151;51.110;7.020;2022-11-12T15:14:23;19.90;99.90
8220;DHT22;4151;51.110;7.020;2022-11-12T15:16:49;19.60;99.90
8220;DHT22;4151;51.110;7.020;2022-11-12T15:19:27;19.40;99.90
8220;DHT22;4151;51.110;7.020;2022-11-12T15:22:03;19.00;99.90
8220;DHT22;4151;51.110;7.020;2022-11-12T15:24:35;18.70;99.90
8220;DHT22;4151;51.110;7.020;2022-11-12T15:35:37;17.30;99.90
8220;DHT22;4151;51.110;7.020;2022-11-12T15:38:12;16.70;99.90
8220;DHT22;4151;51.110;7.020;2022-11-12T15:40:41;16.30;99.90
8220;DHT22;4151;51.110;7.020;2022-11-12T15:43:19;16.00;99.90
8220;DHT22;4151;51.110;7.020;2022-11-12T15:45:50;15.70;99.90
8220;DHT22;4151;51.110;7.020;2022-11-12T15:48:16;15.40;99.90
8220;DHT22;4151;51.110;7.020;2022-11-12T15:50:41;15.00;99.90
8220;DHT22;4151;51.110;7.020;2022-11-12T15:53:07;14.70;99.90
8220;DHT22;4151;51.110;7.020;2022-11-12T15:55:33;14.50;99.90
8220;DHT22;4151;51.110;7.020;2022-11-12T15:57:59;14.30;99.90
8220;DHT22;4151;51.110;7.020;2022-11-12T16:00:31;14.00;99.90
8220;DHT22;4151;51.110;7.020;2022-11-12T16:03:01;13.80;99.90
8220;DHT22;4151;51.110;7.020;2022-11-12T16:05:28;13.70;99.90
8220;DHT22;4151;51.110;7.020;2022-11-12T16:07:53;13.50;99.90
8220;DHT22;4151;51.110;7.020;2022-11-12T16:10:19;13.30;99.90
8220;DHT22;4151;51.110;7.020;2022-11-12T16:12:45;13.20;99.90
8220;DHT22;4151;51.110;7.020;2022-11-12T16:15:19;13.00;99.90
8220;DHT22;4151;51.110;7.020;2022-11-12T16:17:47;12.80;99.90
8220;DHT22;4151;51.110;7.020;2022-11-12T16:22:41;12.60;99.90
8220;DHT22;4151;51.110;7.020;2022-11-12T16:25:07;12.50;99.90
8220;DHT22;4151;51.110;7.020;2022-11-12T16:27:33;12.30;99.90
8220;DHT22;4151;51.110;7.020;2022-11-12T16:30:00;12.20;99.90
8220;DHT22;4151;51.110;7.020;2022-11-12T16:32:25;12.10;99.90
8220;DHT22;4151;51.110;7.020;2022-11-12T16:34:51;11.90;99.90
8220;DHT22;4151;51.110;7.020;2022-11-12T16:37:16;11.80;99.90
8220;DHT22;4151;51.110;7.020;2022-11-12T16:39:42;11.70;99.90
8220;DHT22;4151;51.110;7.020;2022-11-12T16:42:09;11.70;99.90
8220;DHT22;4151;51.110;7.020;2022-11-12T16:44:35;11.60;99.90
8220;DHT22;4151;51.110;7.020;2022-11-12T16:47:02;11.50;99.90
8220;DHT22;4151;51.110;7.020;2022-11-12T16:49:28;11.40;99.90
8220;DHT22;4151;51.110;7.020;2022-11-12T16:51:54;11.40;99.90
8220;DHT22;4151;51.110;7.020;2022-11-12T16:54:19;11.40;99.90
8220;DHT22;4151;51.110;7.020;2022-11-12T16:56:45;11.30;99.90
8220;DHT22;4151;51.110;7.020;2022-11-12T16:59:11;11.20;99.90
8220;DHT22;4151;51.110;7.020;2022-11-12T17:01:38;11.10;99.90
8220;DHT22;4151;51.110;7.020;2022-11-12T17:04:04;11.10;99.90
8220;DHT22;4151;51.110;7.020;2022-11-12T17:06:38;11.00;99.90
8220;DHT22;4151;51.110;7.020;2022-11-12T17:09:05;11.20;99.90
8220;DHT22;4151;51.110;7.020;2022-11-12T17:11:32;11.50;99.90
8220;DHT22;4151;51.110;7.020;2022-11-12T17:14:01;11.80;99.90
8220;DHT22;4151;51.110;7.020;2022-11-12T17:16:28;12.10;99.90
8220;DHT22;4151;51.110;7.020;2022-11-12T17:18:54;12.20;99.90
8220;DHT22;4151;51.110;7.020;2022-11-12T17:21:20;12.40;99.90
8220;DHT22;4151;51.110;7.020;2022-11-12T17:23:46;12.70;99.90
8220;DHT22;4151;51.110;7.020;2022-11-12T17:26:14;12.80;99.90
8220;DHT22;4151;51.110;7.020;2022-11-12T17:28:40;13.00;99.90
8220;DHT22;4151;51.110;7.020;2022-11-12T17:31:13;13.10;99.90
8220;DHT22;4151;51.110;7.020;2022-11-12T17:33:41;13.10;99.90
8220;DHT22;4151;51.110;7.020;2022-11-12T17:36:09;13.10;99.90
8220;DHT22;4151;51.110;7.020;2022-11-12T17:38:35;13.10;99.90
8220;DHT22;4151;51.110;7.020;2022-11-12T17:41:01;13.10;99.90
8220;DHT22;4151;51.110;7.020;2022-11-12T17:43:26;13.00;99.90
8220;DHT22;4151;51.110;7.020;2022-11-12T17:45:53;13.00;99.90
8220;DHT22;4151;51.110;7.020;2022-11-12T17:48:19;12.90;99.90
8220;DHT22;4151;51.110;7.020;2022-11-12T17:50:46;12.80;99.90
8220;DHT22;4151;51.110;7.020;2022-11-12T17:53:12;12.80;99.90
8220;DHT22;4151;51.110;7.020;2022-11-12T17:55:38;12.70;99.90
8220;DHT22;4151;51.110;7.020;2022-11-12T17:58:03;12.60;99.90
8220;DHT22;4151;51.110;7.020;2022-11-12T18:00:29;12.60;99.90
8220;DHT22;4151;51.110;7.020;2022-11-12T18:02:55;12.50;99.90
8220;DHT22;4151;51.110;7.020;2022-11-12T18:05:21;12.40;99.90
8220;DHT22;4151;51.110;7.020;2022-11-12T18:07:47;12.40;99.90
8220;DHT22;4151;51.110;7.020;2022-11-12T18:10:13;12.40;99.90
8220;DHT22;4151;51.110;7.020;2022-11-12T18:12:38;12.30;99.90
8220;DHT22;4151;51.110;7.020;2022-11-12T18:15:05;12.20;99.90
8220;DHT22;4151;51.110;7.020;2022-11-12T18:17:33;12.10;99.90
8220;DHT22;4151;51.110;7.020;2022-11-12T18:19:59;12.10;99.90
8220;DHT22;4151;51.110;7.020;2022-11-12T18:22:25;12.00;99.90